KFRI/FRI METAR and TAF weather

Enter ICAO airport designator
Station Type Date Time Source
KFRI METAR 2021/02/28 02:56 UTC NOAA

KFRI 280256Z AUTO 27009G16KT 10SM OVC028 14/06 A2968 RMK AO2 OVC V BKN PRESRR SLP051 T01420061 53017


Station Type Date Time Source
KFRI Decoded METAR 2021/02/28 02:56 UTC NOAA

Fort Riley, Marshall AAF Ft Riley, KS, United States (KFRI) 39-03-20N 096-45-51W
Feb 27, 2021 - 09:56 PM EST / 2021.02.28 0256 UTC
Wind: from the W (270 degrees) at 10 MPH (9 KT) gusting to 18 MPH (16 KT):0
Visibility: 10 mile(s):0
Sky conditions: overcast
Temperature: 57.6 F (14.2 C)
Dew Point: 43.0 F (6.1 C)
Relative Humidity: 58%
Pressure (altimeter): 29.68 in. Hg (1005 hPa)
Pressure tendency: rising rapidly - 0.05 inches (1.7 hPa) higher than three hours ago
ob: KFRI 280256Z AUTO 27009G16KT 10SM OVC028 14/06 A2968 RMK AO2 OVC V BKN PRESRR SLP051 T01420061 53017
cycle: 3

Station Type Date Time Source
KFRI TAF 2021/02/26 21:06 UTC NOAA

TAF KFRI 262100Z 2621/2803 23012G18KT 9999 SKC QNH2978INS
BECMG 2717/2718 15012KT 9999 SKC QNH2975INS
BECMG 2721/2722 18012G18KT 9999 SCT040 QNH2970INS
BECMG 2801/2802 16009KT 9999 FEW020 QNH2969INS TX15/2721Z TNM01/2711Z LAST NO
AMDS AFT 2624 NEXT 0105

Example: see airport list